createdAt,value
2023-03-11T00:00:18.744Z,94925.53
2023-03-11T00:03:09.863Z,94929.22
2023-03-11T00:05:56.458Z,94921.22
2023-03-11T00:08:41.880Z,94924.72
2023-03-11T00:11:27.266Z,94913.91
2023-03-11T00:14:12.202Z,94938.84
2023-03-11T00:16:57.371Z,94936.06
2023-03-11T00:19:42.487Z,94939.56
2023-03-11T00:22:27.189Z,94954.72
2023-03-11T00:25:12.216Z,94944.19
2023-03-11T00:27:57.276Z,94938.84
2023-03-11T00:30:42.713Z,94958.53
2023-03-11T00:33:27.649Z,94945.34
2023-03-11T00:36:28.817Z,94959.50
2023-03-11T00:39:13.762Z,94973.81
2023-03-11T00:41:58.886Z,94963.16
2023-03-11T00:44:43.845Z,94967.81
2023-03-11T00:47:28.605Z,94986.44
2023-03-11T00:50:15.720Z,94990.78
2023-03-11T00:53:00.776Z,94995.41
2023-03-11T00:55:46.181Z,94998.91
2023-03-11T00:58:33.154Z,94991.91
2023-03-11T01:01:19.174Z,94986.59
2023-03-11T01:04:04.642Z,94991.91
2023-03-11T01:06:50.029Z,94993.75
2023-03-11T01:09:34.974Z,94992.91
2023-03-11T01:12:20.347Z,94981.41
2023-03-11T01:15:05.811Z,94968.09
2023-03-11T01:17:51.070Z,94958.44
2023-03-11T01:20:37.553Z,94966.41
2023-03-11T01:23:23.359Z,94973.56
2023-03-11T01:26:08.605Z,94978.03
2023-03-11T01:28:53.471Z,94976.38
2023-03-11T01:31:38.476Z,94981.72
2023-03-11T01:34:23.778Z,94980.84
2023-03-11T01:37:08.571Z,94985.34
2023-03-11T01:39:53.823Z,94979.19
2023-03-11T01:42:38.660Z,94979.19
2023-03-11T01:45:23.861Z,94973.03
2023-03-11T01:48:09.670Z,94971.19
2023-03-11T01:50:55.899Z,94973.03
2023-03-11T01:53:40.771Z,94968.69
2023-03-11T01:56:26.253Z,94982.81
2023-03-11T01:59:12.230Z,94974.97
2023-03-11T02:02:15.864Z,94976.66
2023-03-11T02:05:01.318Z,94985.63
2023-03-11T02:07:47.256Z,94982.13
2023-03-11T02:10:35.150Z,94994.47
2023-03-11T02:13:20.688Z,94988.28
2023-03-11T02:16:06.232Z,94991.97
2023-03-11T02:18:51.758Z,94992.78
2023-03-11T02:21:37.122Z,94985.63
2023-03-11T02:24:36.756Z,94991.13
2023-03-11T02:27:22.262Z,94989.44
2023-03-11T02:30:08.857Z,94992.94
2023-03-11T02:32:55.394Z,94994.75
2023-03-11T02:35:40.610Z,94997.44
2023-03-11T02:38:25.987Z,95002.75
2023-03-11T02:41:12.140Z,95002.75
2023-03-11T02:43:57.057Z,94993.09
2023-03-11T02:46:43.011Z,94990.44
2023-03-11T02:49:29.683Z,94994.91
2023-03-11T02:52:14.879Z,95002.06
2023-03-11T02:55:00.348Z,94994.06
2023-03-11T02:57:46.453Z,94996.75
2023-03-11T03:00:32.202Z,94983.41
2023-03-11T03:03:22.676Z,94982.59
2023-03-11T03:06:07.825Z,94982.59
2023-03-11T03:08:53.390Z,94993.25
2023-03-11T03:11:38.779Z,94997.75
2023-03-11T03:14:24.127Z,95001.22
2023-03-11T03:17:09.604Z,95002.22
2023-03-11T03:19:54.873Z,95000.53
2023-03-11T03:22:43.393Z,95009.38
2023-03-11T03:25:31.302Z,94993.38
2023-03-11T03:28:20.225Z,94989.88
2023-03-11T03:31:06.873Z,94998.72
2023-03-11T03:33:52.148Z,94993.53
2023-03-11T03:36:37.060Z,95003.34
2023-03-11T03:39:23.327Z,95004.19
2023-03-11T03:42:10.639Z,95014.84
2023-03-11T03:44:58.926Z,95020.34
2023-03-11T03:47:44.224Z,95021.16
2023-03-11T03:50:29.124Z,95028.31
2023-03-11T03:53:14.946Z,95028.47
2023-03-11T03:56:07.997Z,95030.13
2023-03-11T03:58:54.009Z,95033.78
2023-03-11T04:01:41.635Z,95053.28
2023-03-11T04:04:27.136Z,95055.94
2023-03-11T04:07:13.233Z,95064.88
2023-03-11T04:09:58.853Z,95072.19
2023-03-11T04:12:44.299Z,95083.72
2023-03-11T04:15:30.254Z,95089.03
2023-03-11T04:18:15.506Z,95082.84
2023-03-11T04:21:04.428Z,95090.84
2023-03-11T04:23:49.605Z,95089.03
2023-03-11T04:26:41.109Z,95093.66
2023-03-11T04:29:30.567Z,95082.16
2023-03-11T04:32:15.968Z,95091.00
2023-03-11T04:35:02.198Z,95090.00
2023-03-11T04:37:47.434Z,95097.16
2023-03-11T04:40:33.000Z,95093.78
2023-03-11T04:43:18.520Z,95081.41
2023-03-11T04:46:04.047Z,95102.72
2023-03-11T04:48:50.110Z,95100.06
2023-03-11T04:51:35.880Z,95113.28
2023-03-11T04:54:21.791Z,95110.72
2023-03-11T04:57:07.253Z,95120.31
2023-03-11T04:59:53.538Z,95123.94
2023-03-11T05:02:39.250Z,95127.44
2023-03-11T05:05:24.644Z,95130.09
2023-03-11T05:08:09.973Z,95126.88
2023-03-11T05:10:55.551Z,95133.03
2023-03-11T05:13:41.817Z,95141.84
2023-03-11T05:16:27.465Z,95144.28
2023-03-11T05:19:30.899Z,95151.00
2023-03-11T05:22:17.667Z,95158.41
2023-03-11T05:25:03.960Z,95172.00
2023-03-11T05:27:49.392Z,95183.63
2023-03-11T05:30:35.655Z,95189.09
2023-03-11T05:33:21.524Z,95202.53
2023-03-11T05:36:08.943Z,95204.47
2023-03-11T05:38:55.573Z,95207.13
2023-03-11T05:41:40.996Z,95224.09
2023-03-11T05:44:26.257Z,95227.06
2023-03-11T05:47:13.143Z,95221.97
2023-03-11T05:49:59.107Z,95226.75
2023-03-11T05:52:44.331Z,95235.97
2023-03-11T05:55:30.226Z,95239.75
2023-03-11T05:58:15.845Z,95252.34
2023-03-11T06:01:01.069Z,95250.09
2023-03-11T06:03:46.853Z,95258.34
2023-03-11T06:06:33.101Z,95261.28
2023-03-11T06:09:18.413Z,95276.53
2023-03-11T06:12:04.413Z,95275.28
2023-03-11T06:15:02.987Z,95289.03
2023-03-11T06:17:48.318Z,95290.41
2023-03-11T06:20:33.793Z,95290.38
2023-03-11T06:23:19.380Z,95294.97
2023-03-11T06:26:05.102Z,95300.72
2023-03-11T06:28:55.412Z,95307.16
2023-03-11T06:31:41.512Z,95312.88
2023-03-11T06:34:29.306Z,95314.25
2023-03-11T06:37:15.019Z,95321.97
2023-03-11T06:40:00.492Z,95323.91
2023-03-11T06:42:46.484Z,95327.13
2023-03-11T06:45:31.724Z,95326.66
2023-03-11T06:48:17.075Z,95334.22
2023-03-11T06:51:03.003Z,95341.16
2023-03-11T06:53:50.253Z,95337.03
2023-03-11T06:56:36.542Z,95348.25
2023-03-11T06:59:24.715Z,95353.97
2023-03-11T07:02:10.881Z,95361.53
2023-03-11T07:04:56.042Z,95367.13
2023-03-11T07:07:40.987Z,95373.88
2023-03-11T07:10:26.326Z,95370.72
2023-03-11T07:13:11.785Z,95373.94
2023-03-11T07:16:07.690Z,95381.34
2023-03-11T07:18:54.350Z,95389.09
2023-03-11T07:21:39.512Z,95391.44
2023-03-11T07:24:24.605Z,95416.75
2023-03-11T07:27:09.580Z,95425.31
2023-03-11T07:29:54.498Z,95432.84
2023-03-11T07:32:39.581Z,95437.81
2023-03-11T07:35:50.450Z,95430.31
2023-03-11T07:38:35.801Z,95436.91
2023-03-11T07:41:20.646Z,95437.25
2023-03-11T07:44:05.542Z,95436.97
2023-03-11T07:46:50.729Z,95443.53
2023-03-11T07:49:35.749Z,95442.38
2023-03-11T07:52:20.704Z,95446.44
2023-03-11T07:55:05.638Z,95461.34
2023-03-11T07:57:51.673Z,95462.56
2023-03-11T08:00:36.464Z,95469.28
2023-03-11T08:03:21.430Z,95465.47
2023-03-11T08:06:16.283Z,95465.84
2023-03-11T08:09:02.573Z,95468.06
2023-03-11T08:11:49.683Z,95470.41
2023-03-11T08:14:35.220Z,95475.47
2023-03-11T08:17:20.005Z,95478.53
2023-03-11T08:20:08.380Z,95461.34
2023-03-11T08:22:58.167Z,95460.19
2023-03-11T08:25:43.881Z,95460.72
2023-03-11T08:28:28.665Z,95460.56
2023-03-11T08:31:14.621Z,95466.44
2023-03-11T08:34:01.362Z,95472.50
2023-03-11T08:36:46.759Z,95464.06
2023-03-11T08:39:31.763Z,95450.84
2023-03-11T08:42:17.042Z,95447.50
2023-03-11T08:45:01.994Z,95428.53
2023-03-11T08:47:47.415Z,95412.75
2023-03-11T08:50:36.583Z,95412.91
2023-03-11T08:53:26.324Z,95399.84
2023-03-11T08:56:11.254Z,95404.16
2023-03-11T08:58:56.061Z,95413.72
2023-03-11T09:01:42.521Z,95425.69
2023-03-11T09:04:27.331Z,95434.53
2023-03-11T09:07:12.196Z,95444.25
2023-03-11T09:09:57.597Z,95440.56
2023-03-11T09:12:42.727Z,95441.44
2023-03-11T09:15:28.907Z,95438.06
2023-03-11T09:18:13.993Z,95446.09
2023-03-11T09:21:00.340Z,95438.22
2023-03-11T09:23:45.457Z,95461.44
2023-03-11T09:26:30.757Z,95452.56
2023-03-11T09:29:15.731Z,95457.06
2023-03-11T09:32:01.158Z,95458.91
2023-03-11T09:34:46.073Z,95451.56
2023-03-11T09:37:31.007Z,95456.09
2023-03-11T09:40:17.961Z,95460.56
2023-03-11T09:43:06.850Z,95447.66
2023-03-11T09:46:27.593Z,95450.78
2023-03-11T09:49:12.849Z,95446.56
2023-03-11T09:52:17.203Z,95458.09
2023-03-11T09:55:02.225Z,95465.25
2023-03-11T09:57:46.930Z,95471.47
2023-03-11T10:00:32.153Z,95476.50
2023-03-11T10:03:39.895Z,95479.88
2023-03-11T10:06:26.064Z,95488.03
2023-03-11T10:09:29.616Z,95479.47
2023-03-11T10:12:14.462Z,95495.66
2023-03-11T10:15:12.439Z,95486.09
2023-03-11T10:18:01.462Z,95488.22
2023-03-11T10:20:55.148Z,95491.03
2023-03-11T10:24:01.869Z,95484.56
2023-03-11T10:26:48.752Z,95463.25
2023-03-11T10:29:45.915Z,95466.94
2023-03-11T10:32:44.460Z,95453.59
2023-03-11T10:35:32.734Z,95449.09
2023-03-11T10:38:35.178Z,95458.06
2023-03-11T10:41:39.313Z,95463.41
2023-03-11T10:44:37.561Z,95465.25
2023-03-11T10:47:24.280Z,95473.13
2023-03-11T10:50:13.805Z,95476.63
2023-03-11T10:53:06.810Z,95474.81
2023-03-11T10:55:53.766Z,95485.63
2023-03-11T10:58:38.885Z,95485.63
2023-03-11T11:01:24.286Z,95496.31
2023-03-11T11:04:23.741Z,95491.09
2023-03-11T11:07:21.520Z,95488.56
2023-03-11T11:10:23.246Z,95495.03
2023-03-11T11:13:08.321Z,95485.50
2023-03-11T11:15:55.586Z,95478.72
2023-03-11T11:18:44.437Z,95507.81
2023-03-11T11:21:34.180Z,95506.69
2023-03-11T11:24:24.114Z,95507.94
2023-03-11T11:27:22.399Z,95514.81
2023-03-11T11:30:07.405Z,95517.06
2023-03-11T11:32:53.907Z,95518.50
2023-03-11T11:35:38.949Z,95521.03
2023-03-11T11:38:24.536Z,95510.22
2023-03-11T11:41:11.153Z,95503.88
2023-03-11T11:43:56.719Z,95500.50
2023-03-11T11:46:43.273Z,95487.44
2023-03-11T11:49:29.110Z,95489.53
2023-03-11T11:52:16.160Z,95493.47
2023-03-11T11:55:01.379Z,95486.88
2023-03-11T11:57:46.520Z,95483.09
2023-03-11T12:00:38.090Z,95494.34
2023-03-11T12:03:38.453Z,95499.81
2023-03-11T12:06:59.130Z,95503.59
2023-03-11T12:09:46.905Z,95514.56
2023-03-11T12:12:40.746Z,95510.63
2023-03-11T12:15:29.641Z,95518.50
2023-03-11T12:18:20.349Z,95528.91
2023-03-11T12:21:30.613Z,95514.81
2023-03-11T12:24:15.678Z,95508.38
2023-03-11T12:26:42.557Z,95505.56
2023-03-11T12:29:53.582Z,95510.75
2023-03-11T12:32:40.157Z,95509.63
2023-03-11T12:35:29.861Z,95495.41
2023-03-11T12:38:17.709Z,95495.28
2023-03-11T12:41:06.385Z,95494.31
2023-03-11T12:43:51.424Z,95496.97
2023-03-11T12:46:57.576Z,95494.16
2023-03-11T12:49:44.056Z,95501.19
2023-03-11T12:52:29.383Z,95491.34
2023-03-11T12:55:17.517Z,95487.28
2023-03-11T12:58:24.300Z,95486.44
2023-03-11T13:01:12.457Z,95473.09
2023-03-11T13:04:01.138Z,95456.25
2023-03-11T13:07:01.699Z,95443.28
2023-03-11T13:09:59.489Z,95431.25
2023-03-11T13:12:44.556Z,95438.16
2023-03-11T13:15:30.816Z,95429.59
2023-03-11T13:18:24.167Z,95438.31
2023-03-11T13:21:27.720Z,95443.63
2023-03-11T13:24:18.602Z,95450.66
2023-03-11T13:27:05.517Z,95464.28
2023-03-11T13:30:10.219Z,95476.91
2023-03-11T13:33:13.968Z,95486.19
2023-03-11T13:36:04.880Z,95494.34
2023-03-11T13:39:08.367Z,95489.56
2023-03-11T13:41:53.224Z,95489.13
2023-03-11T13:44:38.030Z,95498.66
2023-03-11T13:47:23.104Z,95491.34
2023-03-11T13:50:08.474Z,95500.06
2023-03-11T13:52:53.792Z,95506.25
2023-03-11T13:55:40.384Z,95505.28
2023-03-11T13:58:26.155Z,95498.97
2023-03-11T14:01:14.935Z,95495.44
2023-03-11T14:04:00.330Z,95487.44
2023-03-11T14:06:45.677Z,95486.47
2023-03-11T14:09:30.871Z,95486.47
2023-03-11T14:12:18.596Z,95487.31
2023-03-11T14:15:07.610Z,95501.34
2023-03-11T14:17:52.888Z,95506.56
2023-03-11T14:20:38.194Z,95503.75
2023-03-11T14:23:23.388Z,95512.47
2023-03-11T14:26:09.551Z,95506.28
2023-03-11T14:28:55.165Z,95510.63
2023-03-11T14:31:41.068Z,95505.28
2023-03-11T14:34:27.596Z,95505.28
2023-03-11T14:37:32.272Z,95510.50
2023-03-11T14:40:20.420Z,95508.78
2023-03-11T14:43:06.650Z,95511.31
2023-03-11T14:45:51.627Z,95512.31
2023-03-11T14:48:41.629Z,95514.13
2023-03-11T14:51:29.177Z,95515.81
2023-03-11T14:54:18.904Z,95503.44
2023-03-11T14:57:05.031Z,95506.28
2023-03-11T14:59:50.476Z,95507.25
2023-03-11T15:02:39.993Z,95509.09
2023-03-11T15:05:27.744Z,95507.25
2023-03-11T15:08:12.611Z,95510.75
2023-03-11T15:11:05.188Z,95510.63
2023-03-11T15:13:53.082Z,95513.28
2023-03-11T15:16:38.116Z,95512.31
2023-03-11T15:19:29.188Z,95507.94
2023-03-11T15:22:22.687Z,95503.44
2023-03-11T15:25:18.374Z,95509.66
2023-03-11T15:28:22.243Z,95515.00
2023-03-11T15:31:22.362Z,95507.94
2023-03-11T15:34:17.095Z,95510.63
2023-03-11T15:37:04.005Z,95515.97
2023-03-11T15:39:51.124Z,95521.31
2023-03-11T15:42:36.158Z,95524.81
2023-03-11T15:45:20.897Z,95529.44
2023-03-11T15:48:05.782Z,95521.44
2023-03-11T15:50:55.178Z,95523.28
2023-03-11T15:53:40.636Z,95531.16
2023-03-11T15:56:25.503Z,95529.44
2023-03-11T15:59:12.250Z,95527.66
2023-03-11T16:01:59.500Z,95533.00
2023-03-11T16:04:44.782Z,95521.44
2023-03-11T16:07:39.617Z,95528.63
2023-03-11T16:10:25.745Z,95525.94
2023-03-11T16:13:12.021Z,95524.09
2023-03-11T16:15:57.169Z,95532.13
2023-03-11T16:18:42.251Z,95534.78
2023-03-11T16:21:30.940Z,95532.28
2023-03-11T16:24:19.778Z,95530.44
2023-03-11T16:27:05.458Z,95535.78
2023-03-11T16:29:50.763Z,95533.25
2023-03-11T16:32:35.539Z,95536.75
2023-03-11T16:35:21.179Z,95540.31
2023-03-11T16:38:07.008Z,95542.09
2023-03-11T16:41:01.686Z,95541.28
2023-03-11T16:43:46.651Z,95542.09
2023-03-11T16:46:31.719Z,95546.59
2023-03-11T16:49:17.101Z,95547.59
2023-03-11T16:52:01.953Z,95563.63
2023-03-11T16:54:47.474Z,95568.97
2023-03-11T16:57:32.753Z,95585.00
2023-03-11T17:00:18.215Z,95592.13
2023-03-11T17:03:03.735Z,95599.31
2023-03-11T17:05:49.041Z,95605.47
2023-03-11T17:08:34.303Z,95618.97
2023-03-11T17:11:22.666Z,95630.66
2023-03-11T17:14:16.175Z,95645.66
2023-03-11T17:17:01.837Z,95634.16
2023-03-11T17:19:46.794Z,95637.81
2023-03-11T17:22:32.455Z,95631.47
2023-03-11T17:25:17.661Z,95620.94
2023-03-11T17:28:02.889Z,95615.59
2023-03-11T17:30:48.096Z,95605.78
2023-03-11T17:33:33.592Z,95604.09
2023-03-11T17:36:18.462Z,95605.91
2023-03-11T17:39:03.660Z,95613.06
2023-03-11T17:41:49.141Z,95594.94
2023-03-11T17:44:50.113Z,95627.38
2023-03-11T17:47:36.666Z,95632.72
2023-03-11T17:50:21.770Z,95632.72
2023-03-11T17:53:06.910Z,95623.03
2023-03-11T17:55:51.823Z,95634.56
2023-03-11T17:58:36.580Z,95624.84
2023-03-11T18:01:25.161Z,95624.00
2023-03-11T18:04:10.200Z,95624.13
2023-03-11T18:06:55.590Z,95638.19
2023-03-11T18:09:40.841Z,95642.44
2023-03-11T18:12:26.129Z,95645.97
2023-03-11T18:15:16.060Z,95647.78
2023-03-11T18:18:01.223Z,95664.66
2023-03-11T18:20:46.681Z,95662.91
2023-03-11T18:23:34.641Z,95666.59
2023-03-11T18:26:19.537Z,95662.91
2023-03-11T18:29:04.720Z,95671.94
2023-03-11T18:31:49.989Z,95676.44
2023-03-11T18:34:35.466Z,95683.56
2023-03-11T18:37:20.886Z,95680.91
2023-03-11T18:40:07.113Z,95683.56
2023-03-11T18:42:52.376Z,95688.09
2023-03-11T18:45:38.748Z,95688.22
2023-03-11T18:48:24.032Z,95687.38
2023-03-11T18:51:09.431Z,95686.53
2023-03-11T18:53:54.633Z,95686.53
2023-03-11T18:56:39.674Z,95697.22
2023-03-11T18:59:26.678Z,95694.69
2023-03-11T19:02:11.709Z,95699.03
2023-03-11T19:04:56.594Z,95705.34
2023-03-11T19:07:42.000Z,95707.19
2023-03-11T19:10:27.455Z,95706.31
2023-03-11T19:13:12.360Z,95709.00
2023-03-11T19:15:59.560Z,95710.81
2023-03-11T19:18:44.468Z,95687.31
2023-03-11T19:21:29.608Z,95714.50
2023-03-11T19:24:14.664Z,95715.47
2023-03-11T19:26:59.430Z,95705.63
2023-03-11T19:29:45.249Z,95711.13
2023-03-11T19:32:30.673Z,95715.59
2023-03-11T19:35:17.004Z,95724.59
2023-03-11T19:38:02.168Z,95710.41
2023-03-11T19:40:50.998Z,95719.38
2023-03-11T19:43:35.995Z,95716.84
2023-03-11T19:46:21.558Z,95722.19
2023-03-11T19:49:06.465Z,95728.53
2023-03-11T19:51:52.845Z,95728.66
2023-03-11T19:54:37.589Z,95729.50
2023-03-11T19:57:22.937Z,95739.31
2023-03-11T20:00:08.659Z,95737.50
2023-03-11T20:02:54.491Z,95740.28
2023-03-11T20:05:40.792Z,95737.63
2023-03-11T20:08:26.097Z,95737.78
2023-03-11T20:11:11.469Z,95735.13
2023-03-11T20:13:56.762Z,95738.75
2023-03-11T20:16:42.236Z,95743.25
2023-03-11T20:19:27.566Z,95738.88
2023-03-11T20:22:13.093Z,95740.84
2023-03-11T20:24:57.929Z,95739.03
2023-03-11T20:27:43.160Z,95742.66
2023-03-11T20:30:29.199Z,95753.34
2023-03-11T20:33:14.268Z,95748.00
2023-03-11T20:36:04.591Z,95749.84
2023-03-11T20:38:50.174Z,95749.97
2023-03-11T20:41:38.082Z,95751.81
2023-03-11T20:44:23.048Z,95743.91
2023-03-11T20:47:08.457Z,95753.75
2023-03-11T20:49:53.918Z,95758.22
2023-03-11T20:52:38.667Z,95748.56
2023-03-11T20:55:23.753Z,95758.38
2023-03-11T20:58:08.932Z,95765.53
2023-03-11T21:00:54.311Z,95759.34
2023-03-11T21:03:39.842Z,95763.00
2023-03-11T21:06:29.389Z,95752.47
2023-03-11T21:09:14.930Z,95757.81
2023-03-11T21:12:01.564Z,95764.09
2023-03-11T21:14:46.475Z,95764.94
2023-03-11T21:17:32.769Z,95758.78
2023-03-11T21:20:17.593Z,95765.94
2023-03-11T21:23:02.934Z,95760.72
2023-03-11T21:25:48.298Z,95758.06
2023-03-11T21:28:38.754Z,95758.19
2023-03-11T21:31:27.129Z,95757.34
2023-03-11T21:34:13.944Z,95759.19
2023-03-11T21:36:59.069Z,95765.47
2023-03-11T21:39:44.536Z,95755.81
2023-03-11T21:42:30.121Z,95764.78
2023-03-11T21:45:15.326Z,95757.75
2023-03-11T21:48:00.974Z,95761.38
2023-03-11T21:50:48.437Z,95770.38
2023-03-11T21:53:33.403Z,95767.84
2023-03-11T21:56:18.230Z,95759.97
2023-03-11T21:59:03.846Z,95765.31
2023-03-11T22:01:49.119Z,95768.97
2023-03-11T22:04:34.427Z,95771.63
2023-03-11T22:07:19.696Z,95766.44
2023-03-11T22:10:05.405Z,95774.44
2023-03-11T22:12:50.458Z,95771.88
2023-03-11T22:15:37.521Z,95768.38
2023-03-11T22:18:22.645Z,95774.69
2023-03-11T22:21:10.301Z,95777.34
2023-03-11T22:23:55.909Z,95777.34
2023-03-11T22:26:40.672Z,95783.69
2023-03-11T22:29:25.576Z,95783.81
2023-03-11T22:32:10.557Z,95785.63
2023-03-11T22:34:55.646Z,95779.44
2023-03-11T22:37:40.504Z,95777.63
2023-03-11T22:40:26.827Z,95772.28
2023-03-11T22:43:11.822Z,95771.44
2023-03-11T22:45:57.208Z,95772.41
2023-03-11T22:48:42.595Z,95776.06
2023-03-11T22:51:27.837Z,95781.38
2023-03-11T22:54:12.927Z,95775.34
2023-03-11T22:56:57.990Z,95779.00
2023-03-11T22:59:42.896Z,95776.44
2023-03-11T23:02:28.031Z,95790.63
2023-03-11T23:05:13.564Z,95783.75
2023-03-11T23:07:58.724Z,95789.16
2023-03-11T23:10:44.623Z,95793.66
2023-03-11T23:13:30.467Z,95779.63
2023-03-11T23:16:16.996Z,95790.28
2023-03-11T23:19:02.089Z,95798.41
2023-03-11T23:21:46.968Z,95804.75
2023-03-11T23:24:31.900Z,95797.69
2023-03-11T23:27:16.811Z,95804.16
2023-03-11T23:30:01.795Z,95801.31
2023-03-11T23:32:46.965Z,95801.47
2023-03-11T23:35:32.541Z,95815.66
2023-03-11T23:38:17.648Z,95816.75
2023-03-11T23:41:12.950Z,95810.56
2023-03-11T23:43:58.215Z,95806.22
2023-03-11T23:46:43.073Z,95809.00
2023-03-11T23:49:27.870Z,95812.66
2023-03-11T23:52:12.648Z,95795.91
2023-03-11T23:54:57.480Z,95800.53
2023-03-11T23:57:42.452Z,95799.69
